createdAt,value
2023-02-13T00:00:13.143Z,0.00
2023-02-13T00:01:13.056Z,0.00
2023-02-13T00:02:13.343Z,0.00
2023-02-13T00:03:13.652Z,0.00
2023-02-13T00:04:13.912Z,0.00
2023-02-13T00:05:13.164Z,0.00
2023-02-13T00:06:13.183Z,0.00
2023-02-13T00:07:13.593Z,0.00
2023-02-13T00:08:16.294Z,0.00
2023-02-13T00:09:13.679Z,0.00
2023-02-13T00:10:13.637Z,0.00
2023-02-13T00:11:13.851Z,0.00
2023-02-13T00:12:14.208Z,0.00
2023-02-13T00:13:13.113Z,0.00
2023-02-13T00:14:13.127Z,0.00
2023-02-13T00:15:13.170Z,0.00
2023-02-13T00:16:13.356Z,0.00
2023-02-13T00:17:13.465Z,0.00
2023-02-13T00:18:13.552Z,0.00
2023-02-13T00:19:13.618Z,0.00
2023-02-13T00:20:13.877Z,0.00
2023-02-13T00:21:13.989Z,0.00
2023-02-13T00:22:13.037Z,0.00
2023-02-13T00:23:12.962Z,0.00
2023-02-13T00:24:13.094Z,0.16
2023-02-13T00:25:13.461Z,0.00
2023-02-13T00:26:13.845Z,0.00
2023-02-13T00:27:14.098Z,0.00
2023-02-13T00:28:13.332Z,0.04
2023-02-13T00:29:13.404Z,0.16
2023-02-13T00:30:13.322Z,0.08
2023-02-13T00:31:13.738Z,0.08
2023-02-13T00:32:14.258Z,0.00
2023-02-13T00:33:13.344Z,0.12
2023-02-13T00:34:13.314Z,0.00
2023-02-13T00:35:13.261Z,0.00
2023-02-13T00:36:13.560Z,0.00
2023-02-13T00:37:13.513Z,0.00
2023-02-13T00:38:13.562Z,0.00
2023-02-13T00:39:13.651Z,0.00
2023-02-13T00:40:13.534Z,0.00
2023-02-13T00:41:13.477Z,0.00
2023-02-13T00:42:13.402Z,0.00
2023-02-13T00:43:13.358Z,0.00
2023-02-13T00:44:18.601Z,0.00
2023-02-13T00:45:14.942Z,0.00
2023-02-13T00:46:13.100Z,0.00
2023-02-13T00:47:13.185Z,0.08
2023-02-13T00:48:13.500Z,0.08
2023-02-13T00:49:13.420Z,0.00
2023-02-13T00:50:13.459Z,0.08
2023-02-13T00:51:13.999Z,0.00
2023-02-13T00:52:14.534Z,0.00
2023-02-13T00:53:13.700Z,0.00
2023-02-13T00:54:14.099Z,0.00
2023-02-13T00:55:13.184Z,0.08
2023-02-13T00:56:13.433Z,0.00
2023-02-13T00:57:13.517Z,0.00
2023-02-13T00:58:13.460Z,0.00
2023-02-13T00:59:13.572Z,0.00
2023-02-13T01:00:13.704Z,0.00
2023-02-13T01:01:13.879Z,0.00
2023-02-13T01:02:12.797Z,0.00
2023-02-13T01:03:13.898Z,0.00
2023-02-13T01:04:13.258Z,0.00
2023-02-13T01:05:13.163Z,0.36
2023-02-13T01:06:13.140Z,1.28
2023-02-13T01:07:15.765Z,1.00
2023-02-13T01:08:13.681Z,0.40
2023-02-13T01:09:13.607Z,0.00
2023-02-13T01:10:13.568Z,0.32
2023-02-13T01:11:13.746Z,0.04
2023-02-13T01:12:14.248Z,0.48
2023-02-13T01:13:13.512Z,0.00
2023-02-13T01:14:13.537Z,0.00
2023-02-13T01:15:13.375Z,0.00
2023-02-13T01:16:13.420Z,0.00
2023-02-13T01:17:13.524Z,0.16
2023-02-13T01:18:13.489Z,1.04
2023-02-13T01:19:13.417Z,0.00
2023-02-13T01:20:13.425Z,0.08
2023-02-13T01:21:13.820Z,0.00
2023-02-13T01:22:14.133Z,1.16
2023-02-13T01:23:13.332Z,0.04
2023-02-13T01:24:13.374Z,0.12
2023-02-13T01:25:13.297Z,0.00
2023-02-13T01:26:13.446Z,0.00
2023-02-13T01:27:13.554Z,0.00
2023-02-13T01:28:13.682Z,0.00
2023-02-13T01:29:13.845Z,0.00
2023-02-13T01:30:13.772Z,0.00
2023-02-13T01:31:13.770Z,0.00
2023-02-13T01:32:14.053Z,0.00
2023-02-13T01:33:13.429Z,0.00
2023-02-13T01:34:13.379Z,0.08
2023-02-13T01:35:13.298Z,0.00
2023-02-13T01:36:13.145Z,0.00
2023-02-13T01:37:13.496Z,0.00
2023-02-13T01:38:13.440Z,0.00
2023-02-13T01:39:13.371Z,0.00
2023-02-13T01:40:13.279Z,0.00
2023-02-13T01:41:13.221Z,0.00
2023-02-13T01:42:13.129Z,0.00
2023-02-13T01:43:13.257Z,0.00
2023-02-13T01:44:13.093Z,0.00
2023-02-13T01:45:13.239Z,0.00
2023-02-13T01:46:13.126Z,0.00
2023-02-13T01:47:13.142Z,0.00
2023-02-13T01:48:13.135Z,0.00
2023-02-13T01:49:13.343Z,0.00
2023-02-13T01:50:13.489Z,0.00
2023-02-13T01:51:13.450Z,0.00
2023-02-13T01:52:14.871Z,0.00
2023-02-13T01:53:14.095Z,0.72
2023-02-13T01:54:13.073Z,0.28
2023-02-13T01:55:12.919Z,0.12
2023-02-13T01:56:12.892Z,0.08
2023-02-13T01:57:12.814Z,0.00
2023-02-13T01:58:14.051Z,0.00
2023-02-13T01:59:13.371Z,0.00
2023-02-13T02:00:13.634Z,0.56
2023-02-13T02:01:13.800Z,1.08
2023-02-13T02:02:13.909Z,0.68
2023-02-13T02:03:13.450Z,0.08
2023-02-13T02:04:13.448Z,0.00
2023-02-13T02:05:13.498Z,0.31
2023-02-13T02:06:13.853Z,0.32
2023-02-13T02:07:14.057Z,0.00
2023-02-13T02:08:13.011Z,0.00
2023-02-13T02:09:12.947Z,0.00
2023-02-13T02:10:12.898Z,0.10
2023-02-13T02:11:12.879Z,0.00
2023-02-13T02:12:13.740Z,0.00
2023-02-13T02:13:13.778Z,0.00
2023-02-13T02:14:13.789Z,0.00
2023-02-13T02:15:13.751Z,0.40
2023-02-13T02:16:13.834Z,0.00
2023-02-13T02:17:13.013Z,0.00
2023-02-13T02:18:12.940Z,0.36
2023-02-13T02:19:13.071Z,0.32
2023-02-13T02:20:13.283Z,0.44
2023-02-13T02:21:13.194Z,0.12
2023-02-13T02:22:13.342Z,0.44
2023-02-13T02:23:13.200Z,0.80
2023-02-13T02:24:13.111Z,0.84
2023-02-13T02:25:13.147Z,3.04
2023-02-13T02:26:13.500Z,3.56
2023-02-13T02:27:13.565Z,1.48
2023-02-13T02:28:13.663Z,9.60
2023-02-13T02:29:13.620Z,0.92
2023-02-13T02:30:13.752Z,2.16
2023-02-13T02:31:14.279Z,1.08
2023-02-13T02:32:13.636Z,2.60
2023-02-13T02:33:13.531Z,1.32
2023-02-13T02:34:13.558Z,0.08
2023-02-13T02:35:14.033Z,1.84
2023-02-13T02:36:13.141Z,1.56
2023-02-13T02:37:13.060Z,13.32
2023-02-13T02:38:12.950Z,3.68
2023-02-13T02:39:13.106Z,5.52
2023-02-13T02:40:13.048Z,3.96
2023-02-13T02:41:13.077Z,5.08
2023-02-13T02:42:13.260Z,3.08
2023-02-13T02:43:13.548Z,4.12
2023-02-13T02:44:13.643Z,5.28
2023-02-13T02:45:13.717Z,0.52
2023-02-13T02:46:13.689Z,0.24
2023-02-13T02:47:13.859Z,0.00
2023-02-13T02:48:13.819Z,0.88
2023-02-13T02:49:13.707Z,0.56
2023-02-13T02:50:13.692Z,1.16
2023-02-13T02:51:13.676Z,1.36
2023-02-13T02:52:13.595Z,0.04
2023-02-13T02:53:13.550Z,0.00
2023-02-13T02:54:13.905Z,0.00
2023-02-13T02:55:12.863Z,0.04
2023-02-13T02:56:13.794Z,0.00
2023-02-13T02:57:14.801Z,1.68
2023-02-13T02:58:14.141Z,0.52
2023-02-13T02:59:13.291Z,0.00
2023-02-13T03:00:13.263Z,0.00
2023-02-13T03:01:13.576Z,0.16
2023-02-13T03:02:13.808Z,1.24
2023-02-13T03:03:13.845Z,1.76
2023-02-13T03:04:14.344Z,8.72
2023-02-13T03:05:13.529Z,3.60
2023-02-13T03:06:13.529Z,3.32
2023-02-13T03:07:13.670Z,1.36
2023-02-13T03:08:13.584Z,5.00
2023-02-13T03:09:13.660Z,5.88
2023-02-13T03:10:13.570Z,3.40
2023-02-13T03:11:13.596Z,2.80
2023-02-13T03:12:13.516Z,2.28
2023-02-13T03:13:13.564Z,3.60
2023-02-13T03:14:13.487Z,2.40
2023-02-13T03:15:13.465Z,3.64
2023-02-13T03:16:13.430Z,2.44
2023-02-13T03:17:13.432Z,3.48
2023-02-13T03:18:13.357Z,6.24
2023-02-13T03:19:13.760Z,2.20
2023-02-13T03:20:13.745Z,2.04
2023-02-13T03:21:13.954Z,3.48
2023-02-13T03:22:12.903Z,9.76
2023-02-13T03:23:12.938Z,4.88
2023-02-13T03:24:13.188Z,5.60
2023-02-13T03:25:13.054Z,6.24
2023-02-13T03:26:13.202Z,9.52
2023-02-13T03:27:13.121Z,5.48
2023-02-13T03:28:13.530Z,3.92
2023-02-13T03:29:13.410Z,3.80
2023-02-13T03:30:13.295Z,4.80
2023-02-13T03:31:13.343Z,2.48
2023-02-13T03:32:13.420Z,7.36
2023-02-13T03:33:13.300Z,10.84
2023-02-13T03:34:13.644Z,10.08
2023-02-13T03:35:13.563Z,11.32
2023-02-13T03:36:13.569Z,7.60
2023-02-13T03:37:14.036Z,8.92
2023-02-13T03:38:13.117Z,5.96
2023-02-13T03:39:13.005Z,1.36
2023-02-13T03:40:13.089Z,2.52
2023-02-13T03:41:13.069Z,3.44
2023-02-13T03:42:13.182Z,6.08
2023-02-13T03:43:13.085Z,2.52
2023-02-13T03:44:13.276Z,4.48
2023-02-13T03:45:13.233Z,4.20
2023-02-13T03:46:13.758Z,5.84
2023-02-13T03:47:14.077Z,1.28
2023-02-13T03:48:13.066Z,2.84
2023-02-13T03:49:13.281Z,0.36
2023-02-13T03:50:13.516Z,1.08
2023-02-13T03:51:13.834Z,1.88
2023-02-13T03:52:14.208Z,0.76
2023-02-13T03:53:13.203Z,4.76
2023-02-13T03:54:13.158Z,5.00
2023-02-13T03:55:13.594Z,2.36
2023-02-13T03:56:13.659Z,3.50
2023-02-13T03:57:13.541Z,0.16
2023-02-13T03:58:13.475Z,0.60
2023-02-13T03:59:13.540Z,1.88
2023-02-13T04:00:13.479Z,3.24
2023-02-13T04:01:13.482Z,0.16
2023-02-13T04:02:13.492Z,0.00
2023-02-13T04:03:13.651Z,2.28
2023-02-13T04:04:13.689Z,0.84
2023-02-13T04:05:14.713Z,8.76
2023-02-13T04:06:13.765Z,15.40
2023-02-13T04:07:13.965Z,12.28
2023-02-13T04:08:13.242Z,5.88
2023-02-13T04:09:13.451Z,5.28
2023-02-13T04:10:13.334Z,2.16
2023-02-13T04:11:14.657Z,1.44
2023-02-13T04:12:13.853Z,3.28
2023-02-13T04:13:13.908Z,0.00
2023-02-13T04:14:13.004Z,0.40
2023-02-13T04:15:13.057Z,5.00
2023-02-13T04:16:13.211Z,7.84
2023-02-13T04:17:13.225Z,5.48
2023-02-13T04:18:13.343Z,7.88
2023-02-13T04:19:13.334Z,1.92
2023-02-13T04:20:13.381Z,0.84
2023-02-13T04:21:13.368Z,4.20
2023-02-13T04:22:13.237Z,2.88
2023-02-13T04:23:13.235Z,2.92
2023-02-13T04:24:13.112Z,4.16
2023-02-13T04:25:13.077Z,10.00
2023-02-13T04:26:12.964Z,8.84
2023-02-13T04:27:12.923Z,10.16
2023-02-13T04:28:12.827Z,5.88
2023-02-13T04:29:18.859Z,4.36
2023-02-13T04:30:13.751Z,9.52
2023-02-13T04:31:15.510Z,3.92
2023-02-13T04:32:13.774Z,5.76
2023-02-13T04:33:13.863Z,11.04
2023-02-13T04:34:14.046Z,6.20
2023-02-13T04:35:12.996Z,8.84
2023-02-13T04:36:13.396Z,11.00
2023-02-13T04:37:13.753Z,11.20
2023-02-13T04:38:14.079Z,15.20
2023-02-13T04:39:13.354Z,7.96
2023-02-13T04:40:13.663Z,2.04
2023-02-13T04:41:13.765Z,1.76
2023-02-13T04:42:14.062Z,3.28
2023-02-13T04:43:13.182Z,0.64
2023-02-13T04:44:13.669Z,0.08
2023-02-13T04:45:13.638Z,0.72
2023-02-13T04:46:13.964Z,4.16
2023-02-13T04:47:13.347Z,7.76
2023-02-13T04:48:13.293Z,1.96
2023-02-13T04:49:13.567Z,1.92
2023-02-13T04:50:13.842Z,1.60
2023-02-13T04:51:14.294Z,2.68
2023-02-13T04:52:13.559Z,0.52
2023-02-13T04:53:14.110Z,2.72
2023-02-13T04:54:13.385Z,6.16
2023-02-13T04:55:13.356Z,7.92
2023-02-13T04:56:13.506Z,4.88
2023-02-13T04:57:13.535Z,7.40
2023-02-13T04:58:13.573Z,8.60
2023-02-13T04:59:13.662Z,5.80
2023-02-13T05:00:13.808Z,3.48
2023-02-13T05:01:14.274Z,1.60
2023-02-13T05:02:13.802Z,0.12
2023-02-13T05:03:14.113Z,0.92
2023-02-13T05:04:13.254Z,0.00
2023-02-13T05:05:13.253Z,0.40
2023-02-13T05:06:13.462Z,0.00
2023-02-13T05:07:13.678Z,0.64
2023-02-13T05:08:13.770Z,2.08
2023-02-13T05:09:14.322Z,10.20
2023-02-13T05:10:14.509Z,6.72
2023-02-13T05:11:13.522Z,5.92
2023-02-13T05:12:14.099Z,1.08
2023-02-13T05:13:13.364Z,1.96
2023-02-13T05:14:13.540Z,0.72
2023-02-13T05:15:13.585Z,4.28
2023-02-13T05:16:13.855Z,5.76
2023-02-13T05:17:13.785Z,9.40
2023-02-13T05:18:14.173Z,4.20
2023-02-13T05:19:13.403Z,4.08
2023-02-13T05:20:13.340Z,2.36
2023-02-13T05:21:13.296Z,0.80
2023-02-13T05:22:13.340Z,1.12
2023-02-13T05:23:13.484Z,0.24
2023-02-13T05:24:14.075Z,0.36
2023-02-13T05:25:13.425Z,1.68
2023-02-13T05:26:13.261Z,1.40
2023-02-13T05:27:13.180Z,0.40
2023-02-13T05:28:13.157Z,0.08
2023-02-13T05:29:13.304Z,1.80
2023-02-13T05:30:13.497Z,5.08
2023-02-13T05:31:13.545Z,4.56
2023-02-13T05:32:13.800Z,5.20
2023-02-13T05:33:13.821Z,4.20
2023-02-13T05:34:14.264Z,0.88
2023-02-13T05:35:13.576Z,0.96
2023-02-13T05:36:13.849Z,1.08
2023-02-13T05:37:13.829Z,3.00
2023-02-13T05:38:14.146Z,0.80
2023-02-13T05:39:13.162Z,0.60
2023-02-13T05:40:13.186Z,0.12
2023-02-13T05:41:13.298Z,1.32
2023-02-13T05:42:14.306Z,4.08
2023-02-13T05:43:13.211Z,1.92
2023-02-13T05:44:13.477Z,3.16
2023-02-13T05:45:13.466Z,2.60
2023-02-13T05:46:13.811Z,0.00
2023-02-13T05:47:13.881Z,0.96
2023-02-13T05:48:13.823Z,0.96
2023-02-13T05:49:14.105Z,2.32
2023-02-13T05:50:13.580Z,2.44
2023-02-13T05:51:13.765Z,0.04
2023-02-13T05:52:13.819Z,0.52
2023-02-13T05:53:14.197Z,1.20
2023-02-13T05:54:13.450Z,0.76
2023-02-13T05:55:13.495Z,0.00
2023-02-13T05:56:13.627Z,0.00
2023-02-13T05:57:14.079Z,0.00
2023-02-13T05:58:12.979Z,1.92
2023-02-13T05:59:13.284Z,0.20
2023-02-13T06:00:13.377Z,0.00
2023-02-13T06:01:13.494Z,1.28
2023-02-13T06:02:13.902Z,0.08
2023-02-13T06:03:12.850Z,0.00
2023-02-13T06:05:13.388Z,0.00
2023-02-13T06:06:13.737Z,0.00
2023-02-13T06:07:13.905Z,0.12
2023-02-13T06:08:13.126Z,1.28
2023-02-13T06:09:13.096Z,0.36
2023-02-13T06:10:13.043Z,0.00
2023-02-13T06:11:13.326Z,0.00
2023-02-13T06:12:14.099Z,0.04
2023-02-13T06:13:13.450Z,0.00
2023-02-13T06:14:13.642Z,0.00
2023-02-13T06:15:13.549Z,0.00
2023-02-13T06:16:13.779Z,0.00
2023-02-13T06:17:14.375Z,0.00
2023-02-13T06:18:13.742Z,0.00
2023-02-13T06:19:13.811Z,0.00
2023-02-13T06:20:13.849Z,0.00
2023-02-13T06:21:14.233Z,0.00
2023-02-13T06:22:13.437Z,0.00
2023-02-13T06:23:13.793Z,1.48
2023-02-13T06:24:13.816Z,1.08
2023-02-13T06:25:13.775Z,0.00
2023-02-13T06:26:14.538Z,0.00
2023-02-13T06:27:14.312Z,0.00
2023-02-13T06:28:13.404Z,0.00
2023-02-13T06:29:13.821Z,0.00
2023-02-13T06:30:15.618Z,0.00
2023-02-13T06:31:13.867Z,0.00
2023-02-13T06:32:12.907Z,0.00
2023-02-13T06:33:13.438Z,0.00
2023-02-13T06:34:13.726Z,0.00
2023-02-13T06:35:14.235Z,0.00
2023-02-13T06:36:14.197Z,0.00
2023-02-13T06:37:18.335Z,0.00
2023-02-13T06:38:14.030Z,0.00
2023-02-13T06:39:13.081Z,0.00
2023-02-13T06:40:13.297Z,0.00
2023-02-13T06:41:13.372Z,0.00
2023-02-13T06:42:13.391Z,0.00
2023-02-13T06:43:13.442Z,0.00
2023-02-13T06:44:13.426Z,0.00
2023-02-13T06:45:13.490Z,0.00
2023-02-13T06:46:13.428Z,0.00
2023-02-13T06:47:13.825Z,0.00
2023-02-13T06:48:13.845Z,0.00
2023-02-13T06:49:13.841Z,0.00
2023-02-13T06:50:13.817Z,0.00
2023-02-13T06:51:14.120Z,0.00
2023-02-13T06:52:14.521Z,0.00
2023-02-13T06:53:13.384Z,0.00
2023-02-13T06:54:13.417Z,0.00
2023-02-13T06:55:13.411Z,0.00
2023-02-13T06:56:13.583Z,0.00
2023-02-13T06:57:13.941Z,0.00
2023-02-13T06:58:12.841Z,0.00
2023-02-13T06:59:13.931Z,0.00
2023-02-13T07:00:13.321Z,0.00
2023-02-13T07:01:13.278Z,0.00
2023-02-13T07:02:13.324Z,0.00
2023-02-13T07:03:13.341Z,0.00
2023-02-13T07:04:18.598Z,0.00
2023-02-13T07:05:13.932Z,0.00
2023-02-13T07:06:13.045Z,0.00
2023-02-13T07:07:13.091Z,0.00
2023-02-13T07:08:13.291Z,0.00
2023-02-13T07:09:18.302Z,0.00
2023-02-13T07:10:13.551Z,0.00
2023-02-13T07:11:13.510Z,0.00
2023-02-13T07:12:13.410Z,0.00
2023-02-13T07:13:13.491Z,0.00
2023-02-13T07:14:13.600Z,0.00
2023-02-13T07:15:13.648Z,0.00
2023-02-13T07:16:13.605Z,0.00
2023-02-13T07:17:13.987Z,0.00
2023-02-13T07:18:12.797Z,0.00
2023-02-13T07:19:13.634Z,0.00
2023-02-13T07:20:13.762Z,0.00
2023-02-13T07:21:13.615Z,0.00
2023-02-13T07:22:13.442Z,0.00
2023-02-13T07:23:13.685Z,0.00
2023-02-13T07:24:13.756Z,0.00
2023-02-13T07:25:13.645Z,0.00
2023-02-13T07:26:13.700Z,0.00
2023-02-13T07:27:13.658Z,0.00
2023-02-13T07:28:14.088Z,0.00
2023-02-13T07:29:13.162Z,0.00
2023-02-13T07:30:13.129Z,0.00
2023-02-13T07:31:13.507Z,0.00
2023-02-13T07:32:13.589Z,0.60
2023-02-13T07:33:13.816Z,0.00
2023-02-13T07:34:14.183Z,0.84
2023-02-13T07:35:13.310Z,1.54
2023-02-13T07:36:13.151Z,0.52
2023-02-13T07:37:13.012Z,0.28
2023-02-13T07:38:12.885Z,1.51
2023-02-13T07:39:13.871Z,2.00
2023-02-13T07:40:13.756Z,2.36
2023-02-13T07:41:13.620Z,3.76
2023-02-13T07:42:13.694Z,3.60
2023-02-13T07:43:14.871Z,3.05
2023-02-13T07:44:14.581Z,2.56
2023-02-13T07:45:13.747Z,1.96
2023-02-13T07:46:13.846Z,1.20
2023-02-13T07:47:14.344Z,2.24
2023-02-13T07:48:13.552Z,2.12
2023-02-13T07:49:13.992Z,1.48
2023-02-13T07:50:12.945Z,2.16
2023-02-13T07:51:14.069Z,3.84
2023-02-13T07:52:13.132Z,4.24
2023-02-13T07:53:13.090Z,10.80
2023-02-13T07:54:13.290Z,7.36
2023-02-13T07:55:13.204Z,0.64
2023-02-13T07:56:13.398Z,4.52
2023-02-13T07:57:19.085Z,3.24
2023-02-13T07:58:13.102Z,2.36
2023-02-13T07:59:13.482Z,4.68
2023-02-13T08:00:13.797Z,5.08
2023-02-13T08:01:14.140Z,3.76
2023-02-13T08:02:13.475Z,5.20
2023-02-13T08:03:13.438Z,7.56
2023-02-13T08:04:13.890Z,1.88
2023-02-13T08:05:12.918Z,0.04
2023-02-13T08:06:12.876Z,0.00
2023-02-13T08:07:13.034Z,0.64
2023-02-13T08:08:13.758Z,0.20
2023-02-13T08:09:14.232Z,0.16
2023-02-13T08:10:13.421Z,0.24
2023-02-13T08:11:13.897Z,0.64
2023-02-13T08:12:12.879Z,0.00
2023-02-13T08:13:14.050Z,0.00
2023-02-13T08:14:13.120Z,0.40
2023-02-13T08:15:13.277Z,0.04
2023-02-13T08:16:13.279Z,0.16
2023-02-13T08:17:13.390Z,0.20
2023-02-13T08:18:13.530Z,0.64
2023-02-13T08:19:13.745Z,0.48
2023-02-13T08:20:13.876Z,0.64
2023-02-13T08:21:13.134Z,0.96
2023-02-13T08:22:13.191Z,1.96
2023-02-13T08:23:13.244Z,1.68
2023-02-13T08:24:13.460Z,0.80
2023-02-13T08:25:13.464Z,1.12
2023-02-13T08:26:13.466Z,0.64
2023-02-13T08:27:13.793Z,1.04
2023-02-13T08:28:13.838Z,1.00
2023-02-13T08:29:13.799Z,1.40
2023-02-13T08:30:13.985Z,1.92
2023-02-13T08:31:12.966Z,1.04
2023-02-13T08:32:13.213Z,0.96
2023-02-13T08:33:13.448Z,4.08
2023-02-13T08:34:13.576Z,0.32
2023-02-13T08:35:13.624Z,0.28
2023-02-13T08:36:13.588Z,1.36
2023-02-13T08:37:13.647Z,3.04
2023-02-13T08:38:13.629Z,1.56
2023-02-13T08:39:13.662Z,1.60
2023-02-13T08:40:13.542Z,1.40
2023-02-13T08:41:13.430Z,1.04
2023-02-13T08:42:15.824Z,0.28
2023-02-13T08:43:13.420Z,0.32
2023-02-13T08:44:13.566Z,0.00
2023-02-13T08:45:13.949Z,0.08
2023-02-13T08:46:13.061Z,0.04
2023-02-13T08:47:13.485Z,0.36
2023-02-13T08:48:13.931Z,1.40
2023-02-13T08:49:12.850Z,0.88
2023-02-13T08:50:14.073Z,2.52
2023-02-13T08:51:13.049Z,0.44
2023-02-13T08:52:13.074Z,1.96
2023-02-13T08:53:13.319Z,2.76
2023-02-13T08:54:13.288Z,1.68
2023-02-13T08:55:13.273Z,4.32
2023-02-13T08:56:13.427Z,5.76
2023-02-13T08:57:13.484Z,2.04
2023-02-13T08:58:13.833Z,1.08
2023-02-13T08:59:12.971Z,1.96
2023-02-13T09:00:13.101Z,1.84
2023-02-13T09:01:13.071Z,3.32
2023-02-13T09:02:13.398Z,0.96
2023-02-13T09:03:13.380Z,10.64
2023-02-13T09:04:13.549Z,8.84
2023-02-13T09:05:13.561Z,6.00
2023-02-13T09:06:14.293Z,3.36
2023-02-13T09:07:13.390Z,3.60
2023-02-13T09:08:13.588Z,6.24
2023-02-13T09:09:13.939Z,6.40
2023-02-13T09:10:17.935Z,3.96
2023-02-13T09:11:12.931Z,2.80
2023-02-13T09:12:12.889Z,2.44
2023-02-13T09:13:12.836Z,0.40
2023-02-13T09:14:14.336Z,3.20
2023-02-13T09:15:18.808Z,7.08
2023-02-13T09:16:13.908Z,3.76
2023-02-13T09:17:12.801Z,0.80
2023-02-13T09:18:13.735Z,0.84
2023-02-13T09:19:13.679Z,2.44
2023-02-13T09:20:14.677Z,0.56
2023-02-13T09:21:13.765Z,0.20
2023-02-13T09:22:13.876Z,0.00
2023-02-13T09:23:13.268Z,1.32
2023-02-13T09:24:13.306Z,0.28
2023-02-13T09:25:13.544Z,0.62
2023-02-13T09:26:13.937Z,0.16
2023-02-13T09:27:13.291Z,0.64
2023-02-13T09:28:13.373Z,4.56
2023-02-13T09:29:13.410Z,4.56
2023-02-13T09:30:13.389Z,2.24
2023-02-13T09:31:13.469Z,4.52
2023-02-13T09:32:13.856Z,3.96
2023-02-13T09:33:13.089Z,0.60
2023-02-13T09:34:12.999Z,0.36
2023-02-13T09:35:13.045Z,0.08
2023-02-13T09:36:12.963Z,4.12
2023-02-13T09:37:12.886Z,1.60
2023-02-13T09:38:13.107Z,0.00
2023-02-13T09:39:13.421Z,4.68
2023-02-13T09:40:13.632Z,0.92
2023-02-13T09:41:14.297Z,2.52
2023-02-13T09:42:13.340Z,9.20
2023-02-13T09:43:13.814Z,5.40
2023-02-13T09:44:12.815Z,4.36
2023-02-13T09:45:13.892Z,6.48
2023-02-13T09:46:14.026Z,1.24
2023-02-13T09:47:13.029Z,7.80
2023-02-13T09:48:12.995Z,5.88
2023-02-13T09:49:13.102Z,7.08
2023-02-13T09:50:13.021Z,11.40
2023-02-13T09:51:12.887Z,4.56
2023-02-13T09:52:13.221Z,6.36
2023-02-13T09:53:18.611Z,4.88
2023-02-13T09:54:13.669Z,0.00
2023-02-13T09:55:13.756Z,0.00
2023-02-13T09:56:14.007Z,0.00
2023-02-13T09:57:13.042Z,2.20
2023-02-13T09:58:13.946Z,5.48
2023-02-13T09:59:12.802Z,5.28
2023-02-13T10:00:13.782Z,1.04
2023-02-13T10:01:13.776Z,1.76
2023-02-13T10:02:14.049Z,0.36
2023-02-13T10:03:13.082Z,4.76
2023-02-13T10:04:13.521Z,1.76
2023-02-13T10:05:13.739Z,1.12
2023-02-13T10:06:13.718Z,3.36
2023-02-13T10:07:13.673Z,1.12
2023-02-13T10:08:14.078Z,1.16
2023-02-13T10:09:12.993Z,4.60
2023-02-13T10:10:12.948Z,4.52
2023-02-13T10:11:13.395Z,5.20
2023-02-13T10:12:13.366Z,2.72
2023-02-13T10:13:13.538Z,3.76
2023-02-13T10:14:13.445Z,6.08
2023-02-13T10:15:13.574Z,3.92
2023-02-13T10:16:13.828Z,4.28
2023-02-13T10:17:13.975Z,1.52
2023-02-13T10:18:13.461Z,5.52
2023-02-13T10:19:13.564Z,4.40
2023-02-13T10:20:13.577Z,3.08
2023-02-13T10:21:13.514Z,1.44
2023-02-13T10:22:13.460Z,3.80
2023-02-13T10:23:13.426Z,4.92
2023-02-13T10:24:13.573Z,3.04
2023-02-13T10:25:13.650Z,1.36
2023-02-13T10:26:14.597Z,7.64
2023-02-13T10:27:13.992Z,11.12
2023-02-13T10:28:12.995Z,7.08
2023-02-13T10:29:13.191Z,7.28
2023-02-13T10:30:13.057Z,9.44
2023-02-13T10:31:12.990Z,4.32
2023-02-13T10:32:13.173Z,5.24
2023-02-13T10:33:13.259Z,2.60
2023-02-13T10:34:13.250Z,0.72
2023-02-13T10:35:13.570Z,0.24
2023-02-13T10:36:13.492Z,0.12
2023-02-13T10:37:13.488Z,0.00
2023-02-13T10:38:13.485Z,0.68
2023-02-13T10:39:13.436Z,2.52
2023-02-13T10:40:13.437Z,1.44
2023-02-13T10:41:13.640Z,0.72
2023-02-13T10:42:13.984Z,2.64
2023-02-13T10:43:13.077Z,3.12
2023-02-13T10:44:13.289Z,3.52
2023-02-13T10:45:13.487Z,2.64
2023-02-13T10:46:13.536Z,7.16
2023-02-13T10:47:13.714Z,6.16
2023-02-13T10:48:13.718Z,2.72
2023-02-13T10:49:14.040Z,0.32
2023-02-13T10:50:13.332Z,0.92
2023-02-13T10:51:13.707Z,4.92
2023-02-13T10:52:13.910Z,7.32
2023-02-13T10:53:13.200Z,5.68
2023-02-13T10:54:13.489Z,4.24
2023-02-13T10:55:13.525Z,5.64
2023-02-13T10:56:13.717Z,3.84
2023-02-13T10:57:13.731Z,2.76
2023-02-13T10:58:14.444Z,2.64
2023-02-13T10:59:13.580Z,2.88
2023-02-13T11:00:13.864Z,0.36
2023-02-13T11:01:13.834Z,0.00
2023-02-13T11:02:14.255Z,0.00
2023-02-13T11:03:13.616Z,0.24
2023-02-13T11:04:29.649Z,1.44
2023-02-13T11:05:28.857Z,8.96
2023-02-13T11:06:31.925Z,10.80
2023-02-13T11:07:19.011Z,8.32
2023-02-13T11:08:39.958Z,6.72
2023-02-13T11:10:14.491Z,18.72
2023-02-13T11:11:13.774Z,15.40
2023-02-13T11:12:21.340Z,6.12
2023-02-13T11:13:13.708Z,8.40
2023-02-13T11:14:13.971Z,11.16
2023-02-13T11:15:13.110Z,7.20
2023-02-13T11:16:13.174Z,6.28
2023-02-13T11:17:13.477Z,6.56
2023-02-13T11:18:13.593Z,6.24
2023-02-13T11:19:13.565Z,0.92
2023-02-13T11:20:17.072Z,12.92
2023-02-13T11:21:13.373Z,16.92
2023-02-13T11:22:13.690Z,7.40
2023-02-13T11:23:13.982Z,20.44
2023-02-13T11:24:12.957Z,20.00
2023-02-13T11:25:13.264Z,11.04
2023-02-13T11:26:13.610Z,10.96
2023-02-13T11:27:13.664Z,11.00
2023-02-13T11:28:14.188Z,10.88
2023-02-13T11:29:13.251Z,13.36
2023-02-13T11:30:13.376Z,8.56
2023-02-13T11:31:13.312Z,8.92
2023-02-13T11:32:13.437Z,8.00
2023-02-13T11:33:13.771Z,1.64
2023-02-13T11:34:13.841Z,2.16
2023-02-13T11:35:14.619Z,10.96
2023-02-13T11:36:13.516Z,6.56
2023-02-13T11:37:13.569Z,2.12
2023-02-13T11:38:13.517Z,6.88
2023-02-13T11:39:13.536Z,4.56
2023-02-13T11:40:13.546Z,9.84
2023-02-13T11:41:13.454Z,7.48
2023-02-13T11:42:13.835Z,5.20
2023-02-13T11:43:13.898Z,0.88
2023-02-13T11:44:13.070Z,1.72
2023-02-13T11:45:13.578Z,2.00
2023-02-13T11:46:14.664Z,4.96
2023-02-13T11:47:12.841Z,4.52
2023-02-13T11:48:12.874Z,11.36
2023-02-13T11:49:12.898Z,11.16
2023-02-13T11:51:13.734Z,14.88
2023-02-13T11:52:15.339Z,13.08
2023-02-13T11:53:13.654Z,10.84
2023-02-13T11:54:15.753Z,15.68
2023-02-13T11:55:14.080Z,10.92
2023-02-13T11:56:13.432Z,6.44
2023-02-13T11:57:13.710Z,6.20
2023-02-13T11:58:13.738Z,4.83
2023-02-13T11:59:14.097Z,4.32
2023-02-13T12:00:13.261Z,3.60
2023-02-13T12:01:13.432Z,4.16
2023-02-13T12:02:13.596Z,14.67
2023-02-13T12:03:14.008Z,22.32
2023-02-13T12:04:13.386Z,17.96
2023-02-13T12:05:13.588Z,11.72
2023-02-13T12:06:13.603Z,10.80
2023-02-13T12:07:15.194Z,8.32
2023-02-13T12:08:13.444Z,3.76
2023-02-13T12:09:13.728Z,8.64
2023-02-13T12:10:13.936Z,10.40
2023-02-13T12:11:13.260Z,7.68
2023-02-13T12:12:13.749Z,5.92
2023-02-13T12:13:13.890Z,0.36
2023-02-13T12:14:12.941Z,6.96
2023-02-13T12:15:14.199Z,6.32
2023-02-13T12:16:23.673Z,1.64
2023-02-13T12:17:25.525Z,5.24
2023-02-13T12:18:19.218Z,7.80
2023-02-13T12:19:14.195Z,8.64
2023-02-13T12:20:13.603Z,16.60
2023-02-13T12:21:13.611Z,14.48
2023-02-13T12:22:13.582Z,15.64
2023-02-13T12:23:13.569Z,17.28
2023-02-13T12:24:14.059Z,5.52
2023-02-13T12:25:13.361Z,2.52
2023-02-13T12:26:13.306Z,14.96
2023-02-13T12:27:13.297Z,16.56
2023-02-13T12:28:13.278Z,11.44
2023-02-13T12:29:13.457Z,4.88
2023-02-13T12:30:13.846Z,16.84
2023-02-13T12:31:13.026Z,20.68
2023-02-13T12:32:12.982Z,5.56
2023-02-13T12:33:13.315Z,8.24
2023-02-13T12:34:13.603Z,10.84
2023-02-13T12:35:13.640Z,15.96
2023-02-13T12:36:13.543Z,7.36
2023-02-13T12:37:13.650Z,2.48
2023-02-13T12:38:13.921Z,0.24
2023-02-13T12:39:13.038Z,1.28
2023-02-13T12:40:13.112Z,0.88
2023-02-13T12:41:13.197Z,3.44
2023-02-13T12:42:13.471Z,4.44
2023-02-13T12:43:13.318Z,11.12
2023-02-13T12:44:13.311Z,14.72
2023-02-13T12:45:18.325Z,5.40
2023-02-13T12:46:13.276Z,1.84
2023-02-13T12:47:13.188Z,2.88
2023-02-13T12:48:13.540Z,5.92
2023-02-13T12:49:13.398Z,6.08
2023-02-13T12:50:13.818Z,7.80
2023-02-13T12:51:13.865Z,10.12
2023-02-13T12:52:14.595Z,9.16
2023-02-13T12:53:41.557Z,6.48
2023-02-13T12:54:13.334Z,5.10
2023-02-13T12:55:13.558Z,2.44
2023-02-13T12:56:13.607Z,3.28
2023-02-13T12:57:13.765Z,2.22
2023-02-13T12:58:13.948Z,4.52
2023-02-13T12:59:12.987Z,0.76
2023-02-13T13:00:13.060Z,4.84
2023-02-13T13:01:13.164Z,0.48
2023-02-13T13:02:13.624Z,1.56
2023-02-13T13:03:14.101Z,1.44
2023-02-13T13:04:13.185Z,0.00
2023-02-13T13:05:13.794Z,3.68
2023-02-13T13:06:12.944Z,4.72
2023-02-13T13:07:12.832Z,1.12
2023-02-13T13:08:13.718Z,3.28
2023-02-13T13:09:14.300Z,4.32
2023-02-13T13:10:13.778Z,1.40
2023-02-13T13:11:14.132Z,11.96
2023-02-13T13:12:13.217Z,3.56
2023-02-13T13:13:13.157Z,0.00
2023-02-13T13:14:13.632Z,0.00
2023-02-13T13:15:13.819Z,4.26
2023-02-13T13:16:15.816Z,12.60
2023-02-13T13:17:13.760Z,5.40
2023-02-13T13:18:13.794Z,6.52
2023-02-13T13:19:14.046Z,2.32